createdAt,value
2022-09-23T00:02:03.197Z,9.62
2022-09-23T00:04:30.942Z,9.59
2022-09-23T00:06:58.501Z,9.59
2022-09-23T00:09:26.105Z,9.58
2022-09-23T00:11:54.035Z,9.57
2022-09-23T00:14:21.758Z,9.56
2022-09-23T00:16:49.407Z,9.51
2022-09-23T00:19:17.145Z,9.49
2022-09-23T00:21:44.979Z,9.48
2022-09-23T00:24:12.932Z,9.50
2022-09-23T00:26:40.489Z,9.49
2022-09-23T00:29:08.276Z,9.50
2022-09-23T00:31:36.020Z,9.52
2022-09-23T00:34:03.584Z,9.54
2022-09-23T00:36:32.274Z,9.53
2022-09-23T00:39:00.222Z,9.52
2022-09-23T00:41:27.813Z,9.52
2022-09-23T00:43:55.339Z,9.51
2022-09-23T00:46:22.960Z,9.52
2022-09-23T00:48:50.926Z,9.51
2022-09-23T00:51:19.450Z,9.50
2022-09-23T00:53:47.039Z,9.49
2022-09-23T00:56:14.597Z,9.50
2022-09-23T00:58:42.177Z,9.49
2022-09-23T01:01:10.116Z,9.49
2022-09-23T01:03:37.880Z,9.48
2022-09-23T01:06:05.708Z,9.47
2022-09-23T01:08:33.272Z,9.49
2022-09-23T01:11:01.221Z,9.48
2022-09-23T01:13:29.176Z,9.47
2022-09-23T01:15:56.948Z,9.47
2022-09-23T01:18:24.470Z,9.45
2022-09-23T01:20:52.031Z,9.45
2022-09-23T01:23:19.730Z,9.42
2022-09-23T01:25:47.736Z,9.42
2022-09-23T01:28:16.605Z,9.39
2022-09-23T01:30:44.776Z,9.38
2022-09-23T01:33:12.382Z,9.39
2022-09-23T01:35:39.898Z,9.39
2022-09-23T01:38:08.185Z,9.41
2022-09-23T01:40:36.315Z,9.43
2022-09-23T01:43:03.874Z,9.44
2022-09-23T01:45:31.460Z,9.45
2022-09-23T01:47:59.071Z,9.47
2022-09-23T01:50:44.675Z,9.47
2022-09-23T01:53:12.232Z,9.47
2022-09-23T01:55:39.789Z,9.46
2022-09-23T01:58:07.390Z,9.44
2022-09-23T02:00:35.066Z,9.44
2022-09-23T02:03:05.381Z,9.42
2022-09-23T02:05:33.425Z,9.41
2022-09-23T02:08:01.208Z,9.39
2022-09-23T02:10:28.743Z,9.38
2022-09-23T02:12:57.427Z,9.37
2022-09-23T02:15:25.349Z,9.38
2022-09-23T02:17:53.319Z,9.36
2022-09-23T02:20:21.788Z,9.34
2022-09-23T02:22:49.289Z,9.34
2022-09-23T02:25:17.424Z,9.32
2022-09-23T02:27:45.427Z,9.32
2022-09-23T02:30:13.110Z,9.31
2022-09-23T02:32:40.610Z,9.29
2022-09-23T02:35:08.176Z,9.27
2022-09-23T02:37:35.983Z,9.23
2022-09-23T02:40:04.430Z,9.21
2022-09-23T02:42:32.352Z,9.17
2022-09-23T02:44:59.962Z,9.15
2022-09-23T02:47:27.496Z,9.13
2022-09-23T02:49:56.481Z,9.12
2022-09-23T02:52:25.348Z,9.12
2022-09-23T02:54:53.871Z,9.14
2022-09-23T02:57:21.600Z,9.16
2022-09-23T02:59:50.785Z,9.17
2022-09-23T03:02:20.699Z,9.18
2022-09-23T03:04:49.675Z,9.19
2022-09-23T03:07:17.346Z,9.17
2022-09-23T03:09:44.889Z,9.17
2022-09-23T03:12:12.463Z,9.16
2022-09-23T03:14:39.966Z,9.15
2022-09-23T03:17:08.175Z,9.12
2022-09-23T03:19:35.752Z,9.08
2022-09-23T03:22:03.332Z,9.06
2022-09-23T03:24:32.196Z,9.03
2022-09-23T03:27:00.313Z,9.00
2022-09-23T03:29:29.473Z,8.97
2022-09-23T03:31:57.200Z,8.94
2022-09-23T03:34:24.800Z,8.91
2022-09-23T03:36:52.077Z,8.89
2022-09-23T03:39:19.920Z,8.87
2022-09-23T03:41:48.855Z,8.84
2022-09-23T03:44:17.254Z,8.84
2022-09-23T03:46:49.870Z,8.81
2022-09-23T03:49:17.506Z,8.78
2022-09-23T03:51:45.017Z,8.77
2022-09-23T03:54:12.931Z,8.76
2022-09-23T03:56:40.615Z,8.78
2022-09-23T03:59:08.153Z,8.80
2022-09-23T04:01:36.058Z,8.81
2022-09-23T04:04:03.591Z,8.84
2022-09-23T04:06:31.564Z,8.81
2022-09-23T04:08:59.346Z,8.80
2022-09-23T04:11:26.877Z,8.77
2022-09-23T04:13:54.449Z,8.75
2022-09-23T04:16:22.117Z,8.73
2022-09-23T04:18:50.094Z,8.69
2022-09-23T04:21:17.868Z,8.65
2022-09-23T04:23:46.576Z,8.63
2022-09-23T04:26:14.233Z,8.60
2022-09-23T04:28:41.914Z,8.59
2022-09-23T04:31:09.988Z,8.57
2022-09-23T04:33:37.957Z,8.55
2022-09-23T04:36:05.506Z,8.55
2022-09-23T04:38:33.122Z,8.55
2022-09-23T04:41:00.681Z,8.55
2022-09-23T04:43:28.669Z,8.56
2022-09-23T04:45:57.545Z,8.55
2022-09-23T04:48:25.163Z,8.52
2022-09-23T04:50:52.820Z,8.52
2022-09-23T04:53:21.346Z,8.49
2022-09-23T04:55:49.355Z,8.47
2022-09-23T04:58:16.920Z,8.44
2022-09-23T05:00:44.896Z,8.40
2022-09-23T05:03:13.886Z,8.40
2022-09-23T05:05:41.432Z,8.39
2022-09-23T05:08:09.688Z,8.38
2022-09-23T05:10:37.630Z,8.36
2022-09-23T05:13:05.251Z,8.36
2022-09-23T05:15:32.944Z,8.37
2022-09-23T05:18:00.529Z,8.35
2022-09-23T05:20:28.465Z,8.35
2022-09-23T05:22:56.237Z,8.33
2022-09-23T05:25:25.007Z,8.29
2022-09-23T05:27:52.648Z,8.26
2022-09-23T05:30:20.541Z,8.24
2022-09-23T05:32:48.495Z,8.21
2022-09-23T05:35:16.136Z,8.22
2022-09-23T05:37:43.744Z,8.21
2022-09-23T05:40:11.355Z,8.22
2022-09-23T05:42:38.935Z,8.24
2022-09-23T05:45:08.206Z,8.26
2022-09-23T05:47:35.773Z,8.30
2022-09-23T05:50:03.397Z,8.33
2022-09-23T05:52:31.667Z,8.36
2022-09-23T05:54:59.226Z,8.38
2022-09-23T05:57:26.923Z,8.41
2022-09-23T05:59:54.551Z,8.44
2022-09-23T06:02:22.222Z,8.47
2022-09-23T06:04:49.898Z,8.51
2022-09-23T06:07:17.602Z,8.54
2022-09-23T06:09:45.590Z,8.61
2022-09-23T06:12:14.218Z,8.66
2022-09-23T06:14:41.863Z,8.77
2022-09-23T06:17:09.476Z,8.88
2022-09-23T06:19:37.108Z,8.99
2022-09-23T06:22:05.119Z,9.11
2022-09-23T06:24:32.861Z,9.25
2022-09-23T06:27:01.149Z,9.39
2022-09-23T06:29:31.422Z,9.52
2022-09-23T06:31:59.857Z,9.64
2022-09-23T06:34:27.666Z,9.76
2022-09-23T06:36:59.049Z,9.86
2022-09-23T06:39:28.255Z,9.92
2022-09-23T06:41:55.944Z,9.94
2022-09-23T06:44:23.666Z,9.92
2022-09-23T06:46:51.908Z,9.96
2022-09-23T06:49:21.685Z,10.02
2022-09-23T06:51:49.364Z,10.07
2022-09-23T06:54:17.059Z,10.06
2022-09-23T06:56:44.849Z,10.07
2022-09-23T06:59:13.631Z,10.07
2022-09-23T07:01:41.793Z,10.10
2022-09-23T07:04:10.286Z,10.14
2022-09-23T07:06:38.064Z,10.19
2022-09-23T07:09:05.989Z,10.27
2022-09-23T07:11:34.128Z,10.35
2022-09-23T07:14:02.057Z,10.47
2022-09-23T07:16:29.930Z,10.63
2022-09-23T07:18:57.755Z,10.84
2022-09-23T07:21:26.197Z,11.04
2022-09-23T07:23:54.251Z,11.24
2022-09-23T07:26:22.945Z,11.42
2022-09-23T07:28:51.042Z,11.62
2022-09-23T07:31:29.540Z,11.83
2022-09-23T07:34:01.674Z,12.05
2022-09-23T07:36:31.508Z,12.26
2022-09-23T07:39:03.050Z,12.49
2022-09-23T07:41:30.624Z,12.69
2022-09-23T07:43:59.131Z,12.92
2022-09-23T07:46:28.182Z,13.15
2022-09-23T07:48:56.164Z,13.35
2022-09-23T07:51:23.909Z,13.51
2022-09-23T07:53:51.702Z,13.66
2022-09-23T07:56:20.203Z,13.77
2022-09-23T07:59:00.812Z,13.90
2022-09-23T08:01:29.571Z,14.05
2022-09-23T08:03:57.452Z,14.20
2022-09-23T08:06:25.366Z,14.34
2022-09-23T08:08:53.590Z,14.50
2022-09-23T08:11:21.850Z,14.69
2022-09-23T08:13:49.628Z,14.88
2022-09-23T08:16:17.637Z,15.04
2022-09-23T08:18:45.493Z,15.21
2022-09-23T08:21:13.333Z,15.38
2022-09-23T08:23:41.654Z,15.53
2022-09-23T08:26:17.945Z,15.69
2022-09-23T08:28:48.586Z,15.84
2022-09-23T08:31:16.404Z,16.00
2022-09-23T08:33:44.195Z,16.13
2022-09-23T08:36:12.099Z,16.23
2022-09-23T08:38:39.810Z,16.34
2022-09-23T08:41:07.626Z,16.50
2022-09-23T08:43:35.413Z,16.69
2022-09-23T08:46:03.531Z,16.87
2022-09-23T08:48:31.291Z,16.95
2022-09-23T08:50:59.549Z,16.99
2022-09-23T08:53:27.246Z,17.03
2022-09-23T08:55:54.889Z,17.04
2022-09-23T08:58:25.389Z,17.05
2022-09-23T09:00:53.785Z,17.10
2022-09-23T09:03:21.609Z,17.16
2022-09-23T09:05:54.141Z,17.24
2022-09-23T09:08:24.722Z,17.34
2022-09-23T09:10:53.128Z,17.43
2022-09-23T09:13:20.842Z,17.47
2022-09-23T09:15:48.571Z,17.55
2022-09-23T09:18:16.592Z,17.64
2022-09-23T09:20:44.711Z,17.72
2022-09-23T09:23:12.392Z,17.82
2022-09-23T09:25:40.437Z,17.88
2022-09-23T09:28:08.407Z,17.90
2022-09-23T09:30:36.379Z,17.90
2022-09-23T09:33:04.703Z,17.94
2022-09-23T09:35:33.482Z,17.99
2022-09-23T09:38:02.103Z,18.08
2022-09-23T09:40:30.047Z,18.12
2022-09-23T09:42:57.907Z,18.16
2022-09-23T09:45:27.256Z,18.23
2022-09-23T09:47:56.954Z,18.27
2022-09-23T09:50:25.693Z,18.32
2022-09-23T09:52:56.429Z,18.38
2022-09-23T09:55:24.295Z,18.39
2022-09-23T09:57:52.758Z,18.39
2022-09-23T10:00:20.620Z,18.45
2022-09-23T10:02:49.523Z,18.59
2022-09-23T10:05:17.344Z,18.69
2022-09-23T10:07:45.101Z,18.77
2022-09-23T10:10:28.898Z,18.81
2022-09-23T10:13:02.739Z,18.90
2022-09-23T10:15:34.237Z,18.91
2022-09-23T10:18:02.747Z,18.91
2022-09-23T10:20:30.804Z,18.96
2022-09-23T10:22:58.655Z,19.02
2022-09-23T10:25:26.949Z,19.05
2022-09-23T10:27:54.721Z,19.05
2022-09-23T10:30:23.084Z,19.05
2022-09-23T10:32:51.529Z,19.05
2022-09-23T10:35:21.228Z,19.07
2022-09-23T10:37:49.673Z,19.09
2022-09-23T10:40:34.937Z,19.11
2022-09-23T10:43:20.564Z,19.20
2022-09-23T10:46:05.870Z,19.33
2022-09-23T10:48:36.013Z,19.50
2022-09-23T10:51:03.911Z,19.65
2022-09-23T10:53:32.429Z,19.74
2022-09-23T10:56:00.202Z,19.76
2022-09-23T10:58:27.976Z,19.84
2022-09-23T11:00:56.551Z,19.92
2022-09-23T11:03:24.723Z,20.01
2022-09-23T11:05:52.876Z,20.11
2022-09-23T11:08:20.722Z,20.30
2022-09-23T11:10:50.717Z,20.49
2022-09-23T11:13:18.489Z,20.64
2022-09-23T11:15:46.654Z,20.68
2022-09-23T11:18:14.642Z,20.75
2022-09-23T11:20:42.373Z,20.94
2022-09-23T11:23:10.253Z,21.19
2022-09-23T11:25:38.701Z,21.32
2022-09-23T11:28:06.616Z,21.37
2022-09-23T11:30:34.762Z,21.42
2022-09-23T11:35:37.162Z,22.01
2022-09-23T11:38:06.678Z,22.40
2022-09-23T11:40:34.530Z,22.77
2022-09-23T11:43:02.414Z,23.24
2022-09-23T11:45:30.462Z,23.63
2022-09-23T11:47:58.149Z,23.94
2022-09-23T11:50:28.054Z,24.01
2022-09-23T11:52:59.143Z,24.08
2022-09-23T11:55:26.855Z,24.14
2022-09-23T11:57:54.645Z,24.34
2022-09-23T12:00:22.828Z,24.87
2022-09-23T12:03:03.037Z,25.50
2022-09-23T12:05:32.295Z,26.24
2022-09-23T12:08:01.284Z,26.95
2022-09-23T12:10:29.143Z,27.52
2022-09-23T12:12:57.273Z,27.70
2022-09-23T12:15:25.099Z,27.75
2022-09-23T12:17:53.469Z,27.75
2022-09-23T12:20:21.760Z,27.53
2022-09-23T12:22:49.703Z,27.41
2022-09-23T12:25:17.849Z,27.16
2022-09-23T12:27:46.008Z,26.88
2022-09-23T12:30:14.628Z,26.65
2022-09-23T12:32:42.666Z,26.53
2022-09-23T12:35:10.451Z,26.39
2022-09-23T12:37:38.517Z,26.12
2022-09-23T12:40:06.319Z,25.95
2022-09-23T12:42:34.619Z,25.70
2022-09-23T12:45:02.441Z,25.41
2022-09-23T12:47:30.139Z,25.09
2022-09-23T12:49:58.552Z,24.74
2022-09-23T12:52:31.188Z,24.23
2022-09-23T12:54:59.680Z,23.77
2022-09-23T12:57:27.660Z,23.35
2022-09-23T12:59:55.348Z,23.00
2022-09-23T13:02:23.408Z,22.67
2022-09-23T13:05:09.352Z,22.46
2022-09-23T13:07:37.163Z,22.22
2022-09-23T13:10:05.288Z,22.06
2022-09-23T13:12:33.447Z,21.92
2022-09-23T13:15:05.779Z,21.77
2022-09-23T13:17:34.130Z,21.66
2022-09-23T13:20:01.988Z,21.48
2022-09-23T13:22:29.769Z,21.37
2022-09-23T13:24:58.443Z,21.27
2022-09-23T13:27:27.878Z,21.22
2022-09-23T13:29:56.224Z,21.15
2022-09-23T13:32:24.067Z,21.05
2022-09-23T13:34:52.054Z,20.94
2022-09-23T13:37:22.520Z,20.88
2022-09-23T13:39:50.789Z,20.83
2022-09-23T13:42:19.106Z,20.72
2022-09-23T13:44:47.848Z,20.61
2022-09-23T13:47:15.710Z,20.48
2022-09-23T13:49:44.857Z,20.37
2022-09-23T13:52:12.737Z,20.21
2022-09-23T13:54:41.027Z,20.07
2022-09-23T13:57:09.033Z,19.97
2022-09-23T13:59:36.878Z,19.86
2022-09-23T14:02:04.734Z,19.75
2022-09-23T14:04:32.697Z,19.67
2022-09-23T14:07:00.560Z,19.59
2022-09-23T14:09:28.721Z,19.55
2022-09-23T14:11:56.836Z,19.52
2022-09-23T14:14:24.985Z,19.48
2022-09-23T14:16:52.894Z,19.41
2022-09-23T14:19:21.113Z,19.39
2022-09-23T14:21:49.462Z,19.35
2022-09-23T14:24:17.294Z,19.33
2022-09-23T14:26:45.369Z,19.27
2022-09-23T14:29:13.124Z,19.21
2022-09-23T14:31:42.286Z,19.16
2022-09-23T14:34:10.111Z,19.11
2022-09-23T14:36:55.472Z,19.06
2022-09-23T14:39:23.458Z,19.01
2022-09-23T14:41:51.662Z,19.00
2022-09-23T14:44:19.440Z,18.97
2022-09-23T14:46:47.390Z,18.93
2022-09-23T14:49:15.280Z,18.90
2022-09-23T14:51:44.504Z,18.87
2022-09-23T14:54:12.549Z,18.87
2022-09-23T14:56:40.270Z,18.85
2022-09-23T14:59:08.117Z,18.84
2022-09-23T15:01:36.093Z,18.80
2022-09-23T15:04:04.184Z,18.78
2022-09-23T15:06:32.038Z,18.77
2022-09-23T15:08:59.873Z,18.75
2022-09-23T15:11:27.940Z,18.73
2022-09-23T15:13:58.110Z,18.72
2022-09-23T15:16:28.231Z,18.67
2022-09-23T15:18:56.676Z,18.64
2022-09-23T15:21:25.111Z,18.61
2022-09-23T15:23:53.097Z,18.56
2022-09-23T15:26:21.048Z,18.51
2022-09-23T15:28:49.172Z,18.47
2022-09-23T15:31:17.586Z,18.42
2022-09-23T15:33:45.404Z,18.37
2022-09-23T15:36:13.253Z,18.33
2022-09-23T15:38:41.380Z,18.28
2022-09-23T15:41:09.490Z,18.24
2022-09-23T15:43:38.373Z,18.21
2022-09-23T15:46:06.448Z,18.16
2022-09-23T15:48:35.299Z,18.13
2022-09-23T15:51:03.013Z,18.09
2022-09-23T15:53:31.795Z,18.06
2022-09-23T15:56:00.805Z,18.01
2022-09-23T15:58:28.544Z,17.97
2022-09-23T16:00:57.028Z,17.94
2022-09-23T16:03:28.873Z,17.90
2022-09-23T16:06:00.371Z,17.86
2022-09-23T16:08:28.239Z,17.83
2022-09-23T16:10:56.061Z,17.78
2022-09-23T16:13:24.052Z,17.76
2022-09-23T16:15:51.877Z,17.72
2022-09-23T16:18:20.831Z,17.68
2022-09-23T16:20:50.222Z,17.64
2022-09-23T16:23:18.019Z,17.61
2022-09-23T16:25:45.906Z,17.56
2022-09-23T16:28:13.682Z,17.52
2022-09-23T16:30:42.152Z,17.47
2022-09-23T16:33:10.477Z,17.42
2022-09-23T16:35:38.628Z,17.38
2022-09-23T16:38:06.959Z,17.34
2022-09-23T16:40:34.680Z,17.28
2022-09-23T16:43:05.739Z,17.23
2022-09-23T16:45:34.419Z,17.17
2022-09-23T16:48:02.619Z,17.14
2022-09-23T16:50:32.177Z,17.10
2022-09-23T16:52:59.978Z,17.05
2022-09-23T16:55:28.013Z,17.01
2022-09-23T16:57:56.451Z,16.99
2022-09-23T17:00:53.357Z,16.93
2022-09-23T17:03:38.420Z,16.87
2022-09-23T17:06:08.221Z,16.81
2022-09-23T17:08:36.189Z,16.77
2022-09-23T17:11:04.111Z,16.72
2022-09-23T17:13:32.624Z,16.66
2022-09-23T17:16:00.667Z,16.63
2022-09-23T17:18:28.953Z,16.56
2022-09-23T17:20:57.482Z,16.52
2022-09-23T17:23:26.595Z,16.49
2022-09-23T17:25:54.557Z,16.44
2022-09-23T17:28:22.329Z,16.43
2022-09-23T17:30:50.517Z,16.39
2022-09-23T17:33:23.311Z,16.38
2022-09-23T17:35:51.761Z,16.34
2022-09-23T17:38:19.514Z,16.30
2022-09-23T17:40:48.478Z,16.26
2022-09-23T17:43:16.568Z,16.23
2022-09-23T17:45:44.835Z,16.20
2022-09-23T17:48:12.848Z,16.18
2022-09-23T17:50:40.627Z,16.17
2022-09-23T17:53:08.510Z,16.16
2022-09-23T17:55:36.545Z,16.13
2022-09-23T17:58:04.466Z,16.11
2022-09-23T18:00:32.290Z,16.08
2022-09-23T18:03:00.171Z,16.05
2022-09-23T18:05:28.403Z,16.01
2022-09-23T18:07:56.648Z,15.98
2022-09-23T18:10:25.601Z,15.94
2022-09-23T18:12:53.337Z,15.90
2022-09-23T18:15:21.164Z,15.90
2022-09-23T18:17:49.002Z,15.87
2022-09-23T18:20:17.196Z,15.86
2022-09-23T18:22:45.371Z,15.82
2022-09-23T18:25:35.180Z,15.80
2022-09-23T18:28:01.019Z,15.77
2022-09-23T18:30:30.007Z,15.74
2022-09-23T18:32:58.207Z,15.71
2022-09-23T18:35:25.998Z,15.70
2022-09-23T18:37:53.935Z,15.67
2022-09-23T18:40:21.665Z,15.63
2022-09-23T18:42:50.494Z,15.59
2022-09-23T18:45:18.630Z,15.57
2022-09-23T18:48:04.106Z,15.55
2022-09-23T18:50:41.475Z,15.55
2022-09-23T18:53:09.885Z,15.54
2022-09-23T18:55:38.543Z,15.52
2022-09-23T18:58:07.779Z,15.49
2022-09-23T19:00:36.396Z,15.46
2022-09-23T19:03:04.377Z,15.44
2022-09-23T19:05:32.347Z,15.41
2022-09-23T19:08:00.762Z,15.40
2022-09-23T19:10:28.617Z,15.37
2022-09-23T19:12:56.546Z,15.36
2022-09-23T19:15:24.234Z,15.35
2022-09-23T19:17:52.689Z,15.35
2022-09-23T19:20:21.466Z,15.35
2022-09-23T19:22:49.248Z,15.33
2022-09-23T19:25:17.663Z,15.35
2022-09-23T19:27:45.588Z,15.34
2022-09-23T19:30:15.038Z,15.32
2022-09-23T19:32:43.896Z,15.29
2022-09-23T19:35:12.612Z,15.28
2022-09-23T19:37:40.380Z,15.25
2022-09-23T19:40:08.279Z,15.23
2022-09-23T19:42:36.274Z,15.23
2022-09-23T19:45:04.649Z,15.21
2022-09-23T19:47:32.636Z,15.21
2022-09-23T19:50:00.469Z,15.20
2022-09-23T19:52:30.510Z,15.20
2022-09-23T19:54:58.469Z,15.21
2022-09-23T19:57:33.991Z,15.20
2022-09-23T20:00:01.925Z,15.21
2022-09-23T20:02:29.752Z,15.19
2022-09-23T20:04:57.566Z,15.17
2022-09-23T20:07:25.548Z,15.14
2022-09-23T20:09:53.744Z,15.13
2022-09-23T20:12:21.458Z,15.10
2022-09-23T20:14:49.471Z,15.06
2022-09-23T20:17:17.729Z,15.01
2022-09-23T20:19:46.694Z,14.94
2022-09-23T20:22:33.226Z,14.88
2022-09-23T20:25:01.620Z,14.82
2022-09-23T20:27:31.563Z,14.76
2022-09-23T20:30:00.592Z,14.70
2022-09-23T20:32:29.611Z,14.64
2022-09-23T20:34:57.497Z,14.58
2022-09-23T20:37:25.503Z,14.53
2022-09-23T20:39:53.366Z,14.45
2022-09-23T20:42:22.538Z,14.42
2022-09-23T20:44:50.929Z,14.41
2022-09-23T20:47:18.617Z,14.42
2022-09-23T20:49:46.547Z,14.40
2022-09-23T20:52:14.348Z,14.37
2022-09-23T20:54:43.850Z,14.35
2022-09-23T20:57:12.446Z,14.33
2022-09-23T20:59:40.803Z,14.32
2022-09-23T21:02:08.581Z,14.31
2022-09-23T21:04:36.502Z,14.29
2022-09-23T21:07:04.634Z,14.29
2022-09-23T21:09:32.572Z,14.28
2022-09-23T21:12:00.337Z,14.27
2022-09-23T21:14:28.292Z,14.26
2022-09-23T21:16:57.564Z,14.24
2022-09-23T21:19:26.546Z,14.22
2022-09-23T21:21:54.879Z,14.21
2022-09-23T21:25:03.466Z,14.20
2022-09-23T21:27:10.646Z,14.19
2022-09-23T21:29:40.349Z,14.18
2022-09-23T21:32:08.554Z,14.17
2022-09-23T21:34:36.446Z,14.17
2022-09-23T21:37:06.203Z,14.17
2022-09-23T21:39:33.997Z,14.15
2022-09-23T21:42:01.986Z,14.15
2022-09-23T21:44:30.155Z,14.14
2022-09-23T21:46:58.166Z,14.10
2022-09-23T21:49:25.984Z,14.07
2022-09-23T21:52:00.914Z,14.05
2022-09-23T21:54:29.902Z,14.04
2022-09-23T21:56:57.982Z,14.05
2022-09-23T21:59:25.800Z,14.04
2022-09-23T22:01:54.539Z,14.06
2022-09-23T22:04:22.312Z,14.06
2022-09-23T22:06:50.449Z,14.08
2022-09-23T22:09:18.586Z,14.07
2022-09-23T22:12:03.688Z,14.06
2022-09-23T22:14:31.466Z,14.07
2022-09-23T22:16:59.288Z,14.07
2022-09-23T22:19:27.525Z,14.05
2022-09-23T22:21:56.312Z,14.04
2022-09-23T22:24:24.131Z,14.03
2022-09-23T22:26:51.844Z,14.02
2022-09-23T22:29:37.101Z,14.00
2022-09-23T22:32:22.202Z,13.98
2022-09-23T22:34:51.844Z,13.94
2022-09-23T22:37:20.250Z,13.91
2022-09-23T22:39:47.947Z,13.88
2022-09-23T22:42:16.231Z,13.84
2022-09-23T22:44:43.847Z,13.80
2022-09-23T22:47:11.528Z,13.76
2022-09-23T22:49:39.207Z,13.70
2022-09-23T22:52:08.985Z,13.65
2022-09-23T22:54:36.574Z,13.60
2022-09-23T22:57:04.226Z,13.57
2022-09-23T22:59:33.700Z,13.56
2022-09-23T23:02:02.529Z,13.52
2022-09-23T23:04:31.116Z,13.50
2022-09-23T23:06:58.947Z,13.47
2022-09-23T23:09:26.739Z,13.43
2022-09-23T23:11:54.561Z,13.39
2022-09-23T23:14:22.224Z,13.35
2022-09-23T23:16:50.109Z,13.33
2022-09-23T23:19:19.311Z,13.30
2022-09-23T23:21:47.359Z,13.30
2022-09-23T23:24:15.016Z,13.28
2022-09-23T23:26:42.578Z,13.28
2022-09-23T23:29:10.495Z,13.28
2022-09-23T23:31:38.220Z,13.28
2022-09-23T23:34:05.924Z,13.27
2022-09-23T23:36:33.761Z,13.25
2022-09-23T23:39:01.460Z,13.24
2022-09-23T23:41:29.420Z,13.23
2022-09-23T23:43:56.999Z,13.23
2022-09-23T23:46:25.541Z,13.21
2022-09-23T23:48:53.171Z,13.21
2022-09-23T23:51:20.713Z,13.21
2022-09-23T23:53:48.993Z,13.22
2022-09-23T23:56:16.532Z,13.22
2022-09-23T23:58:44.106Z,13.22
